Time;durP1;ratioP1;P1;durP2;ratioP2;P2;SDS_P1;SDS_P2;PMS_P1;PMS_P2;Temp;Humidity;BMP_temperature;BMP_pressure;BME280_temperature;BME280_humidity;BME280_pressure;Samples;Min_cycle;Max_cycle;Signal;HPM_P1;HPM_P2
2023/05/12 00:00:40;;;;;;;;;0.00;0.00;;;;;25.38;37.12;101612.03;6304967;22;45979;-79
2023/05/12 00:03:07;;;;;;;;;4.00;1.00;;;;;25.43;36.92;101622.13;6304366;22;45267;-79
2023/05/12 00:05:32;;;;;;;;;1.00;1.00;;;;;25.35;37.17;101603.56;6304996;22;45421;-79
2023/05/12 00:07:57;;;;;;;;;2.00;2.00;;;;;25.42;36.93;101619.66;6305645;22;45362;-79
2023/05/12 00:10:25;;;;;;;;;1.00;1.00;;;;;25.45;37.16;101625.41;6305375;22;45217;-79
2023/05/12 00:12:50;;;;;;;;;0.33;0.33;;;;;25.48;37.27;101632.22;6305064;22;45229;-78
2023/05/12 00:15:18;;;;;;;;;0.67;0.33;;;;;25.46;37.30;101635.06;6304824;22;45262;-78
2023/05/12 00:17:43;;;;;;;;;0.67;0.33;;;;;25.45;37.13;101635.25;6305027;22;45219;-78
2023/05/12 00:20:10;;;;;;;;;1.33;0.00;;;;;25.45;37.21;101641.41;6305121;22;45330;-79
2023/05/12 00:22:35;;;;;;;;;1.67;1.00;;;;;25.41;37.30;101634.78;6304543;22;45421;-79
2023/05/12 00:25:00;;;;;;;;;0.00;0.00;;;;;25.45;37.20;101638.72;6305094;22;45353;-79
2023/05/12 00:27:26;;;;;;;;;1.00;0.00;;;;;25.40;37.34;101625.97;6304985;22;45412;-78
2023/05/12 00:29:51;;;;;;;;;3.00;1.00;;;;;25.39;37.28;101624.34;6304966;22;45344;-79
2023/05/12 00:32:16;;;;;;;;;0.00;0.00;;;;;25.39;37.06;101624.34;6304209;22;45339;-79
2023/05/12 00:34:42;;;;;;;;;2.00;0.00;;;;;25.44;37.03;101634.44;6303533;22;45246;-79
2023/05/12 00:37:07;;;;;;;;;0.00;0.00;;;;;25.46;37.43;101634.22;6304786;22;45457;-79
2023/05/12 00:39:33;;;;;;;;;1.33;0.67;;;;;25.46;36.98;101626.25;6304593;22;46077;-78
2023/05/12 00:41:58;;;;;;;;;0.67;0.67;;;;;25.36;37.00;101611.38;6304663;22;45422;-79
2023/05/12 00:44:24;;;;;;;;;3.00;0.33;;;;;25.39;37.04;101620.84;6305231;22;45340;-79
2023/05/12 00:46:51;;;;;;;;;1.00;0.00;;;;;25.44;36.95;101629.09;6302603;22;45171;-78
2023/05/12 00:49:17;;;;;;;;;3.33;1.67;;;;;25.47;37.13;101622.59;6304970;22;46154;-79
2023/05/12 00:51:42;;;;;;;;;2.00;1.00;;;;;25.48;36.87;101630.38;6304924;22;45181;-79
2023/05/12 00:54:08;;;;;;;;;0.00;0.00;;;;;25.49;37.05;101633.88;6304823;22;45285;-79
2023/05/12 00:56:38;;;;;;;;;0.00;0.00;;;;;25.50;36.95;101638.19;6305239;22;45398;-79
2023/05/12 00:59:06;;;;;;;;;1.00;0.67;;;;;25.49;37.18;101632.03;6304595;22;46501;-78
2023/05/12 01:01:33;;;;;;;;;0.00;0.00;;;;;25.38;37.01;101622.66;6304647;22;45221;-78
2023/05/12 01:03:59;;;;;;;;;4.00;0.00;;;;;25.46;36.62;101632.41;6303176;22;45261;-78
2023/05/12 01:06:41;;;;;;;;;1.00;1.00;;;;;25.46;37.21;101627.06;6304722;22;45297;-79
2023/05/12 01:09:07;;;;;;;;;1.67;1.00;;;;;25.46;36.98;101631.56;6304839;22;45271;-79
2023/05/12 01:11:32;;;;;;;;;0.00;0.00;;;;;25.44;37.18;101625.59;6304990;22;45327;-79
2023/05/12 01:13:58;;;;;;;;;1.67;1.00;;;;;25.43;37.19;101624.78;6304757;22;45205;-79
2023/05/12 01:16:28;;;;;;;;;2.00;0.00;;;;;25.42;37.20;101622.31;6304273;22;45178;-79
2023/05/12 01:18:55;;;;;;;;;1.00;1.00;;;;;25.36;37.31;101610.53;6302825;22;47340;-78
2023/05/12 01:21:20;;;;;;;;;1.00;1.00;;;;;25.41;37.79;101621.47;6304467;22;45210;-79
2023/05/12 01:23:53;;;;;;;;;1.33;0.67;;;;;25.41;37.43;101616.16;6304358;22;45149;-79
2023/05/12 01:26:19;;;;;;;;;1.67;1.67;;;;;25.29;37.18;101594.50;6304378;22;45272;-79
2023/05/12 01:28:46;;;;;;;;;1.00;1.00;;;;;25.33;37.29;101600.25;6304402;22;46110;-79
2023/05/12 01:31:12;;;;;;;;;2.00;0.00;;;;;25.31;37.54;101599.63;6304414;22;45259;-79
2023/05/12 01:33:37;;;;;;;;;0.00;0.00;;;;;25.38;37.43;101614.69;6304851;22;45249;-79
2023/05/12 01:36:03;;;;;;;;;1.00;0.00;;;;;25.31;37.41;101602.28;6304248;22;45435;-79
2023/05/12 01:38:28;;;;;;;;;0.00;0.00;;;;;25.38;37.30;101611.19;6304478;22;46130;-78
2023/05/12 01:40:53;;;;;;;;;1.00;0.00;;;;;25.22;37.83;101593.56;6304751;22;45224;-78
2023/05/12 01:43:19;;;;;;;;;0.33;0.33;;;;;25.37;37.44;101612.22;6304896;22;45315;-79
2023/05/12 01:45:44;;;;;;;;;0.00;0.00;;;;;25.36;37.38;101615.88;6303893;22;45222;-79
2023/05/12 01:48:09;;;;;;;;;0.00;0.00;;;;;25.24;37.52;101594.22;6304176;22;60984;-79
2023/05/12 01:50:35;;;;;;;;;1.00;0.33;;;;;25.35;37.02;101604.38;6304343;22;49996;-79
2023/05/12 01:53:00;;;;;;;;;1.00;0.33;;;;;25.28;37.59;101596.31;6304737;22;45341;-79
2023/05/12 01:55:25;;;;;;;;;1.00;1.00;;;;;25.39;37.09;101615.50;6304948;22;45319;-78
2023/05/12 01:57:51;;;;;;;;;1.00;1.00;;;;;25.38;36.92;101616.50;6304900;22;45312;-79
2023/05/12 02:00:16;;;;;;;;;2.00;0.00;;;;;25.40;37.28;101615.31;6304239;22;45335;-78
2023/05/12 02:02:41;;;;;;;;;1.33;0.00;;;;;25.38;37.05;101609.34;6304778;22;45308;-79
2023/05/12 02:05:08;;;;;;;;;2.00;0.00;;;;;25.42;37.08;101615.16;6304197;22;45272;-78
2023/05/12 02:07:33;;;;;;;;;0.33;0.33;;;;;25.38;37.13;101614.69;6304084;22;46292;-78
2023/05/12 02:09:58;;;;;;;;;0.00;0.00;;;;;25.32;37.16;101609.28;6304566;22;45332;-79
2023/05/12 02:12:24;;;;;;;;;3.67;1.00;;;;;25.43;37.10;101635.44;6302611;22;45324;-79
2023/05/12 02:14:49;;;;;;;;;1.00;0.00;;;;;25.44;37.10;101618.44;6303605;22;45252;-79
2023/05/12 02:17:16;;;;;;;;;0.00;0.00;;;;;25.42;37.15;101617.81;6302479;22;47517;-78
2023/05/12 02:19:41;;;;;;;;;1.00;1.00;;;;;25.32;37.32;101610.06;6303934;22;45288;-78
2023/05/12 02:22:06;;;;;;;;;1.00;1.00;;;;;25.13;37.04;101574.19;6304262;22;45301;-78
2023/05/12 02:24:32;;;;;;;;;0.00;0.00;;;;;25.12;37.49;101584.00;6304013;22;45468;-78
2023/05/12 02:26:57;;;;;;;;;0.00;0.00;;;;;25.38;37.22;101624.50;6304360;22;46106;-79
2023/05/12 02:29:22;;;;;;;;;1.00;0.00;;;;;25.37;37.22;101620.19;6304144;22;45209;-78
2023/05/12 02:31:47;;;;;;;;;0.33;0.33;;;;;25.26;37.35;101598.34;6304463;22;45252;-78
2023/05/12 02:34:13;;;;;;;;;0.33;0.33;;;;;25.34;37.29;101609.91;6304572;22;45291;-79
2023/05/12 02:36:38;;;;;;;;;1.00;1.00;;;;;25.33;37.40;101616.22;6304916;22;45740;-79
2023/05/12 02:39:04;;;;;;;;;0.00;0.00;;;;;25.27;37.50;101618.63;6305300;22;45288;-78
2023/05/12 02:41:29;;;;;;;;;0.00;0.00;;;;;25.23;37.64;101611.19;6305375;22;45225;-79
2023/05/12 02:43:55;;;;;;;;;0.67;0.67;;;;;25.33;37.47;101626.88;6303290;22;45415;-78
2023/05/12 02:46:20;;;;;;;;;1.00;1.00;;;;;25.32;37.42;101623.41;6304904;22;46231;-78
2023/05/12 02:48:45;;;;;;;;;1.00;1.00;;;;;25.33;37.51;101627.72;6305566;22;45267;-78
2023/05/12 02:51:11;;;;;;;;;0.00;0.00;;;;;25.33;37.44;101626.88;6305602;22;45525;-79
2023/05/12 02:53:36;;;;;;;;;0.00;0.00;;;;;25.32;37.31;101625.25;6305305;22;45264;-78
2023/05/12 02:56:01;;;;;;;;;1.00;0.00;;;;;25.29;37.39;101629.91;6305051;22;46047;-79
2023/05/12 02:58:27;;;;;;;;;1.00;0.00;;;;;25.33;37.47;101627.72;6304792;22;45249;-79
2023/05/12 03:00:52;;;;;;;;;1.00;1.00;;;;;25.33;37.21;101637.53;6305381;22;45380;-79
2023/05/12 03:03:17;;;;;;;;;1.33;1.33;;;;;25.30;37.58;101636.06;6305455;22;45695;-79
2023/05/12 03:05:43;;;;;;;;;1.00;1.00;;;;;25.32;37.48;101630.59;6305404;22;45991;-79
2023/05/12 03:08:08;;;;;;;;;0.00;0.00;;;;;25.28;37.44;101628.28;6305347;22;45220;-78
2023/05/12 03:10:34;;;;;;;;;0.00;0.00;;;;;25.16;37.41;101613.78;6305812;22;45272;-79
2023/05/12 03:12:59;;;;;;;;;0.00;0.00;;;;;25.27;37.13;101625.78;6305157;22;45302;-79
2023/05/12 03:15:25;;;;;;;;;0.00;0.00;;;;;25.34;37.40;101633.88;6305273;22;46950;-79
2023/05/12 03:17:50;;;;;;;;;1.00;1.00;;;;;25.27;37.41;101626.63;6305702;22;45237;-79
2023/05/12 03:20:15;;;;;;;;;0.00;0.00;;;;;25.28;37.11;101627.44;6305629;22;45311;-79
2023/05/12 03:22:41;;;;;;;;;0.00;0.00;;;;;25.36;37.07;101638.00;6305045;22;45403;-78
2023/05/12 03:25:09;;;;;;;;;1.00;1.00;;;;;25.34;37.16;101640.03;6305261;22;46829;-78
2023/05/12 03:27:34;;;;;;;;;2.67;0.33;;;;;25.37;37.03;101637.00;6304510;22;45344;-78
2023/05/12 03:30:00;;;;;;;;;0.67;0.00;;;;;25.34;36.69;101633.88;6305115;22;45343;-78
2023/05/12 03:32:27;;;;;;;;;0.00;0.00;;;;;25.38;36.95;101648.47;6305578;22;45277;-78
2023/05/12 03:34:52;;;;;;;;;0.00;0.00;;;;;25.33;37.00;101641.03;6304758;22;46426;-78
2023/05/12 03:37:18;;;;;;;;;0.00;0.00;;;;;25.38;37.01;101648.47;6305396;22;45333;-78
2023/05/12 03:39:43;;;;;;;;;1.00;1.00;;;;;25.31;37.04;101639.56;6305131;22;45412;-78
2023/05/12 03:42:08;;;;;;;;;0.00;0.00;;;;;25.36;37.20;101648.66;6305356;22;45537;-78
2023/05/12 03:44:34;;;;;;;;;0.00;0.00;;;;;25.35;37.06;101644.34;6305359;22;46212;-79
2023/05/12 03:46:59;;;;;;;;;0.00;0.00;;;;;25.36;36.79;101646.00;6304716;22;45208;-79
2023/05/12 03:49:24;;;;;;;;;0.00;0.00;;;;;25.26;37.05;101642.78;6304716;22;45218;-79
2023/05/12 03:51:50;;;;;;;;;0.33;0.33;;;;;25.27;37.28;101642.59;6305166;22;45434;-78
2023/05/12 03:54:15;;;;;;;;;0.00;0.00;;;;;25.35;36.92;101664.81;6304713;22;46100;-80
2023/05/12 03:56:40;;;;;;;;;0.00;0.00;;;;;25.31;36.98;101656.38;6304736;22;45663;-78
2023/05/12 03:59:05;;;;;;;;;0.00;0.00;;;;;25.20;36.96;101640.84;6305383;22;45202;-79
2023/05/12 04:01:31;;;;;;;;;0.00;0.00;;;;;25.31;37.13;101652.88;6305277;22;45419;-78
2023/05/12 04:03:56;;;;;;;;;2.00;0.00;;;;;25.15;37.42;101636.91;6305054;22;46124;-79
2023/05/12 04:06:21;;;;;;;;;0.00;0.00;;;;;24.90;37.18;101615.00;6305261;22;45220;-78
2023/05/12 04:08:47;;;;;;;;;1.00;1.00;;;;;25.25;37.33;101646.44;6304572;22;45345;-78
2023/05/12 04:11:12;;;;;;;;;0.00;0.00;;;;;25.21;37.17;101646.00;6305516;22;45155;-79
2023/05/12 04:13:38;;;;;;;;;0.00;0.00;;;;;25.27;37.25;101652.41;6304540;22;45341;-78
2023/05/12 04:16:04;;;;;;;;;0.00;0.00;;;;;25.19;37.30;101640.00;6305174;22;45267;-79
2023/05/12 04:18:29;;;;;;;;;1.00;1.00;;;;;25.18;37.02;101643.69;6305222;22;45328;-79
2023/05/12 04:20:55;;;;;;;;;1.67;0.67;;;;;25.21;37.33;101647.84;6305307;22;45353;-79
2023/05/12 04:23:20;;;;;;;;;1.00;1.00;;;;;25.25;37.53;101660.59;6304137;22;46461;-78
2023/05/12 04:25:46;;;;;;;;;0.67;0.67;;;;;25.20;37.17;101648.84;6304364;22;45280;-78
2023/05/12 04:28:12;;;;;;;;;0.00;0.00;;;;;25.13;37.23;101641.59;6304918;22;45287;-78
2023/05/12 04:30:41;;;;;;;;;0.67;0.67;;;;;25.19;37.35;101645.34;6305250;22;45403;-78
2023/05/12 04:33:07;;;;;;;;;0.00;0.00;;;;;25.24;37.12;101653.59;6304517;22;46350;-78
2023/05/12 04:35:33;;;;;;;;;0.00;0.00;;;;;25.26;36.94;101654.28;6304661;22;45255;-78
2023/05/12 04:38:00;;;;;;;;;0.00;0.00;;;;;25.28;36.97;101649.59;6305018;22;45179;-78
2023/05/12 04:40:25;;;;;;;;;0.33;0.33;;;;;25.29;37.06;101659.22;6304965;22;45446;-79
2023/05/12 04:42:51;;;;;;;;;2.00;0.00;;;;;25.02;37.16;101620.72;6304401;22;46012;-79
2023/05/12 04:45:16;;;;;;;;;0.67;0.67;;;;;25.27;36.99;101653.25;6304352;22;45307;-79
2023/05/12 04:47:41;;;;;;;;;1.00;0.33;;;;;25.26;37.20;101648.94;6304843;22;45334;-79
2023/05/12 04:50:07;;;;;;;;;0.00;0.00;;;;;25.33;36.97;101669.50;6304798;22;45307;-78
2023/05/12 04:52:32;;;;;;;;;0.00;0.00;;;;;25.33;37.05;101673.00;6304011;22;46344;-79
2023/05/12 04:54:58;;;;;;;;;0.00;0.00;;;;;25.30;37.22;101673.34;6305013;22;45270;-78
2023/05/12 04:57:24;;;;;;;;;0.00;0.00;;;;;25.34;36.92;101671.16;6304801;22;45293;-78
2023/05/12 04:59:49;;;;;;;;;1.00;1.00;;;;;25.32;36.91;101676.66;6304798;22;45420;-78
2023/05/12 05:02:14;;;;;;;;;0.00;0.00;;;;;25.31;36.84;101677.69;6304406;22;46096;-78
2023/05/12 05:04:40;;;;;;;;;1.00;1.00;;;;;25.18;36.88;101665.84;6304488;22;45436;-78
2023/05/12 05:07:05;;;;;;;;;0.67;0.67;;;;;25.26;37.20;101682.75;6304822;22;45277;-78
2023/05/12 05:09:30;;;;;;;;;1.00;1.00;;;;;25.24;37.12;101684.75;6304923;22;45224;-78
2023/05/12 05:11:56;;;;;;;;;1.00;0.00;;;;;25.23;37.00;101683.09;6305128;22;45199;-78
2023/05/12 05:14:21;;;;;;;;;0.00;0.00;;;;;25.26;36.98;101694.22;6304926;22;45186;-78
2023/05/12 05:16:47;;;;;;;;;0.33;0.00;;;;;25.24;37.33;101695.41;6304937;22;45248;-78
2023/05/12 05:19:13;;;;;;;;;2.00;0.00;;;;;25.24;37.38;101696.22;6304619;22;45108;-78
2023/05/12 05:21:38;;;;;;;;;0.00;0.00;;;;;25.23;37.32;101697.25;6304180;22;45344;-78
2023/05/12 05:24:04;;;;;;;;;0.67;0.67;;;;;25.23;37.02;101701.72;6302806;22;45412;-77
2023/05/12 05:26:30;;;;;;;;;1.00;0.00;;;;;25.23;37.22;101699.91;6304719;22;45603;-79
2023/05/12 05:28:55;;;;;;;;;1.33;0.00;;;;;25.17;37.10;101690.81;6304746;22;45378;-87
2023/05/12 05:31:20;;;;;;;;;0.00;0.00;;;;;25.25;36.97;101700.53;6305289;22;45285;-87
2023/05/12 05:33:46;;;;;;;;;1.00;0.67;;;;;25.28;37.33;101708.19;6304071;22;45310;-82
2023/05/12 05:36:12;;;;;;;;;3.33;1.00;;;;;25.29;37.17;101701.03;6303941;22;45388;-78
2023/05/12 05:38:37;;;;;;;;;2.00;1.00;;;;;25.23;37.39;101689.25;6303770;22;45327;-79
2023/05/12 05:41:03;;;;;;;;;0.67;0.00;;;;;25.29;37.43;101704.50;6301969;22;47587;-76
2023/05/12 05:43:28;;;;;;;;;2.33;0.33;;;;;25.07;37.58;101664.44;6303693;22;45476;-77
2023/05/12 05:45:55;;;;;;;;;3.33;2.33;;;;;25.28;37.55;101705.50;6302197;22;45517;-77
2023/05/12 05:48:21;;;;;;;;;1.67;0.00;;;;;25.31;37.83;101706.16;6303873;22;45273;-78
2023/05/12 05:50:47;;;;;;;;;1.33;0.00;;;;;25.23;37.49;101697.25;6303358;22;45265;-79
2023/05/12 05:53:13;;;;;;;;;1.67;0.33;;;;;25.31;37.33;101712.31;6304324;22;45211;-76
2023/05/12 05:55:38;;;;;;;;;2.00;1.00;;;;;25.29;37.41;101717.81;6303351;22;45218;-77
2023/05/12 05:58:04;;;;;;;;;2.00;0.00;;;;;25.23;37.16;101701.72;6301897;22;45229;-76
2023/05/12 06:00:29;;;;;;;;;1.00;1.00;;;;;25.25;37.41;101703.22;6303522;22;45280;-76
2023/05/12 06:02:55;;;;;;;;;0.67;0.67;;;;;25.36;37.28;101714.44;6304174;22;45222;-76
2023/05/12 06:05:20;;;;;;;;;0.33;0.00;;;;;25.36;37.40;101707.28;6304092;22;45330;-77
2023/05/12 06:07:45;;;;;;;;;3.67;0.00;;;;;25.38;37.34;101715.06;6300363;22;45453;-76
2023/05/12 06:10:11;;;;;;;;;0.00;0.00;;;;;25.33;37.33;101699.63;6286899;22;46074;-76
2023/05/12 06:12:36;;;;;;;;;2.00;0.00;;;;;25.37;37.25;101702.78;6288164;22;45350;-76
2023/05/12 06:15:01;;;;;;;;;0.00;0.00;;;;;25.39;37.16;101706.91;6288694;22;45610;-76
2023/05/12 06:17:27;;;;;;;;;0.67;0.67;;;;;25.31;37.42;101696.34;6289323;22;45349;-77
2023/05/12 06:19:52;;;;;;;;;0.00;0.00;;;;;25.40;37.16;101715.72;6288801;22;51622;-77
2023/05/12 06:22:18;;;;;;;;;0.00;0.00;;;;;25.34;37.46;101701.31;6289700;22;45378;-77
2023/05/12 06:24:43;;;;;;;;;2.67;1.00;;;;;25.42;37.22;101712.88;6290192;22;45619;-76
2023/05/12 06:27:08;;;;;;;;;1.67;0.67;;;;;25.38;37.59;101713.25;6290788;22;45689;-77
2023/05/12 06:29:34;;;;;;;;;2.00;1.00;;;;;25.41;37.31;101714.72;6288675;22;45345;-77
2023/05/12 06:31:59;;;;;;;;;1.00;1.00;;;;;25.43;37.49;101719.84;6287572;22;45383;-77
2023/05/12 06:34:24;;;;;;;;;0.33;0.00;;;;;25.42;37.62;101715.53;6287098;22;45367;-77
2023/05/12 06:36:50;;;;;;;;;2.00;0.00;;;;;25.28;37.25;101697.53;6287900;22;45724;-77
2023/05/12 06:39:15;;;;;;;;;0.67;0.67;;;;;25.42;37.32;101721.69;6301691;22;45832;-76
2023/05/12 06:41:41;;;;;;;;;0.00;0.00;;;;;25.42;37.63;101721.69;6303525;22;45248;-77
2023/05/12 06:44:11;;;;;;;;;0.00;0.00;;;;;25.45;37.63;101720.50;6303775;22;45321;-77
2023/05/12 06:46:39;;;;;;;;;1.00;1.00;;;;;25.46;37.20;101727.47;6303884;22;45430;-75
2023/05/12 06:49:05;;;;;;;;;0.00;0.00;;;;;25.47;37.12;101716.66;6303343;22;46067;-77
2023/05/12 06:51:30;;;;;;;;;0.00;0.00;;;;;25.45;37.78;101716.00;6303655;22;45296;-77
2023/05/12 06:53:55;;;;;;;;;0.00;0.00;;;;;25.49;37.35;101719.97;6303757;22;45255;-76
2023/05/12 06:56:22;;;;;;;;;1.00;1.00;;;;;25.51;37.38;101720.59;6304225;22;45172;-76
2023/05/12 06:58:48;;;;;;;;;2.00;1.00;;;;;25.49;37.16;101719.97;6303409;22;46326;-77
2023/05/12 07:01:13;;;;;;;;;1.00;1.00;;;;;25.52;37.24;101724.94;6303329;22;45256;-76
2023/05/12 07:03:39;;;;;;;;;1.00;1.00;;;;;25.42;37.47;101699.56;6301458;22;45243;-77
2023/05/12 07:06:04;;;;;;;;;1.00;1.00;;;;;25.56;37.51;101716.53;6303597;22;45509;-77
2023/05/12 07:08:30;;;;;;;;;0.00;0.00;;;;;25.57;37.26;101723.53;6303376;22;46755;-76
2023/05/12 07:10:55;;;;;;;;;0.67;0.67;;;;;25.58;37.34;101723.34;6303252;22;45524;-77
2023/05/12 07:13:21;;;;;;;;;1.67;0.33;;;;;25.52;37.39;101706.28;6303430;22;45347;-77
2023/05/12 07:15:46;;;;;;;;;0.67;0.33;;;;;25.63;37.30;101722.81;6303342;22;45442;-77
2023/05/12 07:18:12;;;;;;;;;2.00;1.00;;;;;25.66;37.35;101722.44;6303309;22;45399;-77
2023/05/12 07:20:37;;;;;;;;;1.33;0.67;;;;;25.70;37.20;101717.56;6303403;22;45383;-77
2023/05/12 07:23:03;;;;;;;;;0.67;0.67;;;;;25.72;37.33;101715.53;6303625;22;45272;-77
2023/05/12 07:25:28;;;;;;;;;1.00;0.33;;;;;25.61;37.03;101696.34;6305264;22;45295;-77
2023/05/12 07:27:54;;;;;;;;;0.33;0.33;;;;;25.56;37.36;101681.91;6304667;22;46915;-77
2023/05/12 07:30:21;;;;;;;;;1.00;1.00;;;;;25.81;37.19;101716.31;6305078;22;45284;-76
2023/05/12 07:32:46;;;;;;;;;0.33;0.00;;;;;25.82;37.13;101721.44;6304553;22;45340;-77
2023/05/12 07:35:12;;;;;;;;;0.67;0.67;;;;;25.82;36.94;101721.44;6305315;22;45468;-77
2023/05/12 07:37:37;;;;;;;;;3.33;0.67;;;;;25.82;37.19;101720.63;6304654;22;45954;-76
2023/05/12 07:40:03;;;;;;;;;0.33;0.33;;;;;25.82;37.35;101725.94;6305340;22;45249;-77
2023/05/12 07:42:29;;;;;;;;;2.50;2.00;;;;;25.79;36.87;101721.00;6304994;22;45352;-77
2023/05/12 07:44:54;;;;;;;;;0.33;0.00;;;;;25.81;37.24;101724.31;6304839;22;45285;-78
2023/05/12 07:47:19;;;;;;;;;2.00;1.00;;;;;25.80;37.35;101731.47;6304247;22;45958;-78
2023/05/12 07:49:45;;;;;;;;;0.67;0.00;;;;;25.80;37.45;101730.66;6305047;22;45221;-77
2023/05/12 07:52:10;;;;;;;;;1.33;1.33;;;;;25.78;37.21;101714.84;6305017;22;45367;-77
2023/05/12 07:54:36;;;;;;;;;0.67;0.00;;;;;25.79;37.28;101723.69;6304948;22;45296;-77
2023/05/12 07:57:01;;;;;;;;;0.00;0.00;;;;;25.77;37.33;101726.50;6304247;22;46757;-77
2023/05/12 07:59:27;;;;;;;;;4.00;1.33;;;;;25.78;37.18;101730.00;6305034;22;45281;-77
2023/05/12 08:01:52;;;;;;;;;1.00;1.00;;;;;25.77;37.23;101723.84;6304904;22;45340;-77
2023/05/12 08:04:17;;;;;;;;;2.00;2.00;;;;;25.72;37.10;101723.53;6304344;22;45240;-76
2023/05/12 08:06:43;;;;;;;;;1.00;1.00;;;;;25.73;37.16;101728.72;6305052;22;45321;-77
2023/05/12 08:09:08;;;;;;;;;3.00;3.00;;;;;25.74;37.04;101727.72;6304529;22;45407;-78
2023/05/12 08:11:33;;;;;;;;;0.33;0.33;;;;;25.74;37.31;101733.03;6304967;22;45209;-77
2023/05/12 08:13:59;;;;;;;;;2.33;1.67;;;;;25.69;37.35;101730.06;6305115;22;45232;-74
2023/05/12 08:16:24;;;;;;;;;0.00;0.00;;;;;25.58;37.53;101718.03;6304392;22;45463;-77
2023/05/12 08:18:50;;;;;;;;;2.00;0.00;;;;;25.72;37.10;101732.38;6305262;22;45276;-76
2023/05/12 08:21:15;;;;;;;;;1.00;1.00;;;;;25.71;37.30;101736.03;6305095;22;45272;-76
2023/05/12 08:23:40;;;;;;;;;0.33;0.33;;;;;25.70;37.36;101737.06;6302722;22;46690;-76
2023/05/12 08:26:06;;;;;;;;;1.33;1.00;;;;;25.60;37.55;101724.00;6304885;22;45271;-79
2023/05/12 08:28:31;;;;;;;;;0.67;0.67;;;;;25.68;37.35;101733.75;6304956;22;45248;-77
2023/05/12 08:30:57;;;;;;;;;1.00;1.00;;;;;25.71;37.46;101737.91;6304351;22;45183;-77
2023/05/12 08:33:23;;;;;;;;;2.33;1.00;;;;;25.62;37.54;101729.97;6304636;22;45220;-77
2023/05/12 08:35:49;;;;;;;;;1.00;1.00;;;;;25.71;37.35;101741.34;6304379;22;46525;-77
2023/05/12 08:38:15;;;;;;;;;1.00;1.00;;;;;25.69;36.96;101739.88;6304431;22;45307;-77
2023/05/12 08:40:55;;;;;;;;;0.33;0.33;;;;;25.71;37.55;101748.56;6302928;22;45763;-77
2023/05/12 08:43:36;;;;;;;;;1.00;1.00;;;;;25.70;37.30;101742.38;6305303;22;45251;-76
2023/05/12 08:46:01;;;;;;;;;1.00;1.00;;;;;25.70;37.33;101746.88;6303616;22;47087;-77
2023/05/12 08:48:28;;;;;;;;;0.00;0.00;;;;;25.65;37.24;101723.47;6304368;22;45255;-75
2023/05/12 08:50:54;;;;;;;;;1.33;0.33;;;;;25.61;37.32;101736.31;6302853;22;45332;-77
2023/05/12 08:53:23;;;;;;;;;0.67;0.67;;;;;25.66;37.24;101740.28;6304494;22;45393;-77
2023/05/12 08:55:50;;;;;;;;;1.00;1.00;;;;;25.69;37.19;101745.22;6304280;22;47012;-76
2023/05/12 08:58:16;;;;;;;;;0.33;0.33;;;;;25.69;37.38;101731.91;6304624;22;45379;-77
2023/05/12 09:00:43;;;;;;;;;0.00;0.00;;;;;25.60;37.19;101724.00;6303877;22;45310;-77
2023/05/12 09:03:12;;;;;;;;;2.67;1.00;;;;;25.68;37.48;101739.09;6304325;22;45304;-77
2023/05/12 09:05:39;;;;;;;;;1.00;1.00;;;;;25.61;37.16;101730.16;6304108;22;45232;-76
2023/05/12 09:08:05;;;;;;;;;1.00;1.00;;;;;25.61;37.69;101735.47;6304119;22;45196;-76
2023/05/12 09:10:31;;;;;;;;;2.00;1.00;;;;;25.58;37.58;101733.19;6304889;22;45296;-76
2023/05/12 09:13:02;;;;;;;;;1.00;1.00;;;;;25.67;37.37;101750.75;6304019;22;45271;-76
2023/05/12 09:15:34;;;;;;;;;2.00;2.00;;;;;25.65;37.83;101734.13;6303812;22;47099;-75
2023/05/12 09:17:59;;;;;;;;;1.00;1.00;;;;;25.58;37.76;101717.22;6304210;22;45402;-77
2023/05/12 09:20:25;;;;;;;;;1.00;1.00;;;;;25.66;37.85;101743.75;6305122;22;45539;-75
2023/05/12 09:22:51;;;;;;;;;0.00;0.00;;;;;25.67;37.66;101737.41;6304915;22;45502;-76
2023/05/12 09:25:18;;;;;;;;;0.00;0.00;;;;;25.65;37.33;101736.78;6304431;22;45304;-77
2023/05/12 09:27:48;;;;;;;;;1.00;1.00;;;;;25.67;37.73;101744.59;6301899;22;45255;-77
2023/05/12 09:30:14;;;;;;;;;2.67;1.00;;;;;25.55;37.72;101714.91;6304078;22;45291;-77
2023/05/12 09:32:40;;;;;;;;;0.00;0.00;;;;;25.68;37.81;101740.91;6304220;22;45431;-77
2023/05/12 09:35:12;;;;;;;;;1.00;1.00;;;;;25.65;37.82;101736.78;6304269;22;46079;-78
2023/05/12 09:37:41;;;;;;;;;1.00;1.00;;;;;25.68;37.53;101743.59;6304379;22;45331;-77
2023/05/12 09:40:07;;;;;;;;;0.00;0.00;;;;;25.65;37.64;101739.44;6304264;22;45178;-77
2023/05/12 09:42:34;;;;;;;;;0.67;0.67;;;;;25.64;37.42;101737.78;6302285;22;45583;-77
2023/05/12 09:45:08;;;;;;;;;0.00;0.00;;;;;25.68;37.57;101739.09;6303406;22;46123;-76
2023/05/12 09:47:38;;;;;;;;;1.00;1.00;;;;;25.69;37.58;101739.88;6303588;22;45259;-76
2023/05/12 09:50:06;;;;;;;;;0.33;0.33;;;;;25.69;37.40;101735.41;6304666;22;45341;-74
2023/05/12 09:52:36;;;;;;;;;0.67;0.33;;;;;25.46;37.55;101704.34;6304156;22;45374;-77
2023/05/12 09:55:09;;;;;;;;;3.00;1.67;;;;;25.57;37.76;101713.72;6304165;22;46222;-76
2023/05/12 09:57:44;;;;;;;;;0.00;0.00;;;;;25.72;37.80;101734.19;6303782;22;45305;-77
2023/05/12 10:00:16;;;;;;;;;0.00;0.00;;;;;25.73;37.55;101731.41;6304760;22;45219;-77
2023/05/12 10:02:43;;;;;;;;;1.00;1.00;;;;;25.73;37.55;101723.41;6304021;22;45178;-77
2023/05/12 10:05:17;;;;;;;;;2.00;2.00;;;;;25.69;37.76;101716.75;6303880;22;45166;-77
2023/05/12 10:07:47;;;;;;;;;1.00;1.00;;;;;25.70;37.26;101721.06;6303827;22;45252;-76
2023/05/12 10:10:25;;;;;;;;;0.33;0.33;;;;;25.76;37.50;101730.22;6304628;22;45387;-77
2023/05/12 10:12:50;;;;;;;;;0.00;0.00;;;;;25.78;37.30;101725.50;6303676;22;45483;-77
2023/05/12 10:15:18;;;;;;;;;1.00;1.00;;;;;25.60;37.40;101691.19;6303130;22;46256;-77
2023/05/12 10:17:44;;;;;;;;;1.00;1.00;;;;;25.81;37.37;101726.97;6303721;22;45288;-76
2023/05/12 10:20:12;;;;;;;;;0.00;0.00;;;;;25.76;37.26;101708.88;6303845;22;45731;-77
2023/05/12 10:22:39;;;;;;;;;0.00;0.00;;;;;25.79;37.39;101724.47;6303781;22;45403;-77
2023/05/12 10:25:07;;;;;;;;;1.00;1.00;;;;;25.70;37.43;101696.25;6303475;22;46624;-77
2023/05/12 10:27:33;;;;;;;;;1.00;1.00;;;;;25.79;37.58;101721.81;6303072;22;45303;-77
2023/05/12 10:30:00;;;;;;;;;1.00;1.00;;;;;25.82;37.40;101709.94;6304196;22;45229;-77
2023/05/12 10:32:27;;;;;;;;;0.00;0.00;;;;;25.82;37.66;101712.63;6303988;22;45383;-77
2023/05/12 10:34:52;;;;;;;;;0.00;0.00;;;;;25.74;37.37;101694.88;6302510;22;46307;-76
2023/05/12 10:37:18;;;;;;;;;2.00;2.00;;;;;25.83;37.43;101716.94;6304479;22;45296;-77
2023/05/12 10:39:48;;;;;;;;;1.67;1.67;;;;;25.82;37.55;101716.13;6304363;22;45317;-81
2023/05/12 10:42:21;;;;;;;;;1.33;1.00;;;;;25.83;37.46;101712.44;6303967;22;45296;-83
2023/05/12 10:44:54;;;;;;;;;1.67;1.67;;;;;25.84;37.51;101713.28;6303881;22;46214;-84
2023/05/12 10:47:25;;;;;;;;;2.00;2.00;;;;;25.78;37.49;101695.34;6304131;22;45435;-78
2023/05/12 10:49:55;;;;;;;;;4.67;1.33;;;;;25.85;37.77;101713.09;6303772;22;45336;-87
2023/05/12 10:52:21;;;;;;;;;1.67;0.67;;;;;25.84;37.49;101710.63;6303738;22;45216;-84
2023/05/12 10:54:46;;;;;;;;;0.33;0.33;;;;;25.85;37.40;101718.41;6303207;22;46039;-83
2023/05/12 10:57:30;;;;;;;;;1.00;1.00;;;;;25.83;37.59;101720.44;6304486;22;45236;-85
2023/05/12 10:59:58;;;;;;;;;0.67;0.00;;;;;25.84;37.25;101719.41;6305677;22;45214;-84
2023/05/12 11:02:32;;;;;;;;;2.00;1.33;;;;;25.74;37.76;101703.72;6305177;22;45483;-85
2023/05/12 11:05:03;;;;;;;;;1.00;1.00;;;;;25.87;37.39;101734.22;6304867;22;46036;-80
2023/05/12 11:07:31;;;;;;;;;1.33;1.33;;;;;25.88;37.42;101738.56;6304790;22;45328;-79
2023/05/12 11:10:00;;;;;;;;;2.33;1.67;;;;;25.84;37.43;101722.09;6304770;22;45220;-79
2023/05/12 11:12:28;;;;;;;;;5.67;2.00;;;;;25.83;37.69;101738.28;6305300;22;45466;-89
2023/05/12 11:14:54;;;;;;;;;1.33;1.00;;;;;25.83;37.66;101735.63;6301672;22;47013;-82
2023/05/12 11:17:19;;;;;;;;;3.00;1.33;;;;;25.81;37.86;101727.81;6304346;22;45292;-82
2023/05/12 11:19:47;;;;;;;;;3.00;0.00;;;;;25.74;37.26;101713.53;6305142;22;45372;-82